createdAt,value
2018-08-08T00:00:45.530Z,931.48
2018-08-08T00:02:17.200Z,931.46
2018-08-08T00:03:48.670Z,931.42
2018-08-08T00:05:20.234Z,931.48
2018-08-08T00:06:51.805Z,931.47
2018-08-08T00:08:23.371Z,931.47
2018-08-08T00:09:54.938Z,931.49
2018-08-08T00:11:26.507Z,931.47
2018-08-08T00:12:58.077Z,931.44
2018-08-08T00:14:29.643Z,931.48
2018-08-08T00:16:01.211Z,931.49
2018-08-08T00:17:32.781Z,931.44
2018-08-08T00:19:04.405Z,931.50
2018-08-08T00:20:36.116Z,931.51
2018-08-08T00:22:07.484Z,931.47
2018-08-08T00:23:39.054Z,931.43
2018-08-08T00:25:10.621Z,931.37
2018-08-08T00:26:42.290Z,931.38
2018-08-08T00:28:13.758Z,931.35
2018-08-08T00:29:45.327Z,931.34
2018-08-08T00:31:16.895Z,931.38
2018-08-08T00:32:48.466Z,931.40
2018-08-08T00:34:20.033Z,931.40
2018-08-08T00:35:51.601Z,931.42
2018-08-08T00:37:23.168Z,931.38
2018-08-08T00:38:54.837Z,931.41
2018-08-08T00:40:26.305Z,931.38
2018-08-08T00:41:57.874Z,931.34
2018-08-08T00:43:29.442Z,931.32
2018-08-08T00:45:01.010Z,931.37
2018-08-08T00:46:32.579Z,931.33
2018-08-08T00:48:04.149Z,931.32
2018-08-08T00:49:35.716Z,931.31
2018-08-08T00:51:07.299Z,931.30
2018-08-08T00:52:38.852Z,931.28
2018-08-08T00:54:10.421Z,931.31
2018-08-08T00:55:41.990Z,931.32
2018-08-08T00:57:13.758Z,931.31
2018-08-08T00:58:45.127Z,931.36
2018-08-08T01:00:16.694Z,931.39
2018-08-08T01:01:48.263Z,931.33
2018-08-08T01:03:19.831Z,931.39
2018-08-08T01:04:51.400Z,931.42
2018-08-08T01:06:22.969Z,931.36
2018-08-08T01:07:54.552Z,931.41
2018-08-08T01:09:26.107Z,931.41
2018-08-08T01:10:57.674Z,931.41
2018-08-08T01:12:29.242Z,931.36
2018-08-08T01:14:00.810Z,931.40
2018-08-08T01:15:32.479Z,931.36
2018-08-08T01:17:03.948Z,931.40
2018-08-08T01:18:35.516Z,931.39
2018-08-08T01:20:07.087Z,931.34
2018-08-08T01:21:38.754Z,931.44
2018-08-08T01:23:10.222Z,931.39
2018-08-08T01:24:41.793Z,931.37
2018-08-08T01:26:13.359Z,931.39
2018-08-08T01:27:45.028Z,931.36
2018-08-08T01:29:16.519Z,931.38
2018-08-08T01:30:48.066Z,931.39
2018-08-08T01:32:19.633Z,931.38
2018-08-08T01:33:51.555Z,931.35
2018-08-08T01:35:22.780Z,931.36
2018-08-08T01:36:54.340Z,931.34
2018-08-08T01:38:25.908Z,931.38
2018-08-08T01:39:57.479Z,931.36
2018-08-08T01:41:29.045Z,931.34
2018-08-08T01:43:00.619Z,931.35
2018-08-08T01:44:32.184Z,931.32
2018-08-08T01:46:03.753Z,931.34
2018-08-08T01:47:35.321Z,931.27
2018-08-08T01:49:06.889Z,931.35
2018-08-08T01:50:38.458Z,931.26
2018-08-08T01:52:10.229Z,931.32
2018-08-08T01:53:41.596Z,931.32
2018-08-08T01:55:13.165Z,931.39
2018-08-08T01:56:44.734Z,931.39
2018-08-08T01:58:16.403Z,931.41
2018-08-08T01:59:47.871Z,931.45
2018-08-08T02:01:19.440Z,931.48
2018-08-08T02:02:51.043Z,931.44
2018-08-08T02:04:22.578Z,931.45
2018-08-08T02:05:54.147Z,931.44
2018-08-08T02:07:25.716Z,931.42
2018-08-08T02:08:57.285Z,931.44
2018-08-08T02:10:28.954Z,931.51
2018-08-08T02:12:00.423Z,931.55
2018-08-08T02:13:31.998Z,931.50
2018-08-08T02:15:03.561Z,931.49
2018-08-08T02:16:35.131Z,931.51
2018-08-08T02:18:06.701Z,931.43
2018-08-08T02:19:38.268Z,931.44
2018-08-08T02:21:09.839Z,931.49
2018-08-08T02:22:41.657Z,931.49
2018-08-08T02:24:12.983Z,931.53
2018-08-08T02:25:44.544Z,931.54
2018-08-08T02:27:16.116Z,931.58
2018-08-08T02:28:47.790Z,931.57
2018-08-08T02:30:19.329Z,931.58
2018-08-08T02:31:50.825Z,931.53
2018-08-08T02:33:22.392Z,931.54
2018-08-08T02:34:53.960Z,931.57
2018-08-08T02:36:25.538Z,931.59
2018-08-08T02:37:57.099Z,931.51
2018-08-08T02:39:28.670Z,931.50
2018-08-08T02:41:00.237Z,931.45
2018-08-08T02:42:31.814Z,931.43
2018-08-08T02:44:03.378Z,931.43
2018-08-08T02:45:34.946Z,931.41
2018-08-08T02:47:06.615Z,931.40
2018-08-08T02:48:38.084Z,931.39
2018-08-08T02:50:09.653Z,931.31
2018-08-08T02:51:41.222Z,931.31
2018-08-08T02:53:13.044Z,931.26
2018-08-08T02:54:44.360Z,931.24
2018-08-08T02:56:15.930Z,931.22
2018-08-08T02:57:47.499Z,931.24
2018-08-08T02:59:19.168Z,931.27
2018-08-08T03:00:50.637Z,931.31
2018-08-08T03:02:22.246Z,931.31
2018-08-08T03:03:53.776Z,931.30
2018-08-08T03:05:25.445Z,931.34
2018-08-08T03:06:56.914Z,931.36
2018-08-08T03:08:28.603Z,931.39
2018-08-08T03:10:00.056Z,931.35
2018-08-08T03:11:31.622Z,931.34
2018-08-08T03:13:03.191Z,931.36
2018-08-08T03:14:34.759Z,931.28
2018-08-08T03:16:06.329Z,931.25
2018-08-08T03:17:37.900Z,931.28
2018-08-08T03:19:09.469Z,931.30
2018-08-08T03:20:41.036Z,931.34
2018-08-08T03:22:12.605Z,931.38
2018-08-08T03:23:44.525Z,931.34
2018-08-08T03:25:15.744Z,931.37
2018-08-08T03:26:47.312Z,931.35
2018-08-08T03:28:18.881Z,931.29
2018-08-08T03:29:50.553Z,931.28
2018-08-08T03:31:22.025Z,931.33
2018-08-08T03:32:53.589Z,931.34
2018-08-08T03:34:25.159Z,931.33
2018-08-08T03:35:56.728Z,931.30
2018-08-08T03:37:28.297Z,931.24
2018-08-08T03:38:59.866Z,931.19
2018-08-08T03:40:31.435Z,931.16
2018-08-08T03:42:03.105Z,931.18
2018-08-08T03:43:34.574Z,931.18
2018-08-08T03:45:06.144Z,931.19
2018-08-08T03:46:37.723Z,931.16
2018-08-08T03:48:09.282Z,931.17
2018-08-08T03:49:40.850Z,931.17
2018-08-08T03:51:12.419Z,931.17
2018-08-08T03:52:43.989Z,931.17
2018-08-08T03:54:15.657Z,931.19
2018-08-08T03:55:47.126Z,931.14
2018-08-08T03:57:18.730Z,931.06
2018-08-08T03:58:50.286Z,931.09
2018-08-08T04:00:22.035Z,931.08
2018-08-08T04:01:53.435Z,931.09
2018-08-08T04:03:25.053Z,931.08
2018-08-08T04:04:56.611Z,931.02
2018-08-08T04:06:28.179Z,931.00
2018-08-08T04:07:59.747Z,930.99
2018-08-08T04:09:31.318Z,930.89
2018-08-08T04:11:02.880Z,931.02
2018-08-08T04:12:34.449Z,930.97
2018-08-08T04:14:06.018Z,930.95
2018-08-08T04:15:37.587Z,930.87
2018-08-08T04:17:09.171Z,930.87
2018-08-08T04:18:40.875Z,930.88
2018-08-08T04:20:12.443Z,930.89
2018-08-08T04:21:43.862Z,930.93
2018-08-08T04:23:15.431Z,930.86
2018-08-08T04:24:46.999Z,930.86
2018-08-08T04:26:18.568Z,930.87
2018-08-08T04:27:50.137Z,930.79
2018-08-08T04:29:21.706Z,930.85
2018-08-08T04:30:53.426Z,930.86
2018-08-08T04:32:24.843Z,930.82
2018-08-08T04:33:56.412Z,930.85
2018-08-08T04:35:27.982Z,930.75
2018-08-08T04:36:59.650Z,930.69
2018-08-08T04:38:31.120Z,930.65
2018-08-08T04:40:02.688Z,930.72
2018-08-08T04:41:34.256Z,930.66
2018-08-08T04:43:05.826Z,930.66
2018-08-08T04:44:37.394Z,930.62
2018-08-08T04:46:08.963Z,930.62
2018-08-08T04:47:40.532Z,930.62
2018-08-08T04:49:12.105Z,930.60
2018-08-08T04:50:43.683Z,930.55
2018-08-08T04:52:15.238Z,930.63
2018-08-08T04:53:46.807Z,930.57
2018-08-08T04:55:18.778Z,930.56
2018-08-08T04:56:49.950Z,930.50
2018-08-08T04:58:21.514Z,930.54
2018-08-08T04:59:53.082Z,930.51
2018-08-08T05:01:24.801Z,930.52
2018-08-08T05:02:56.220Z,930.49
2018-08-08T05:04:27.789Z,930.50
2018-08-08T05:05:59.357Z,930.46
2018-08-08T05:07:30.929Z,930.48
2018-08-08T05:09:02.496Z,930.54
2018-08-08T05:10:34.064Z,930.46
2018-08-08T05:12:05.632Z,930.45
2018-08-08T05:13:37.402Z,930.34
2018-08-08T05:15:08.770Z,930.45
2018-08-08T05:16:40.339Z,930.42
2018-08-08T05:18:11.907Z,930.38
2018-08-08T05:19:43.478Z,930.42
2018-08-08T05:21:15.048Z,930.44
2018-08-08T05:22:46.619Z,930.45
2018-08-08T05:24:18.192Z,930.50
2018-08-08T05:25:49.754Z,930.44
2018-08-08T05:27:21.325Z,930.46
2018-08-08T05:28:52.888Z,930.42
2018-08-08T05:30:24.461Z,930.43
2018-08-08T05:31:56.276Z,930.44
2018-08-08T05:33:27.594Z,930.45
2018-08-08T05:34:59.163Z,930.45
2018-08-08T05:36:30.732Z,930.46
2018-08-08T05:38:02.301Z,930.45
2018-08-08T05:39:33.870Z,930.33
2018-08-08T05:41:05.439Z,930.31
2018-08-08T05:42:37.007Z,930.31
2018-08-08T05:44:08.576Z,930.25
2018-08-08T05:45:40.145Z,930.20
2018-08-08T05:47:11.714Z,930.20
2018-08-08T05:48:43.283Z,930.23
2018-08-08T05:50:15.008Z,930.17
2018-08-08T05:51:46.427Z,930.19
2018-08-08T05:53:17.941Z,930.14
2018-08-08T05:54:49.507Z,930.20
2018-08-08T05:56:21.325Z,930.11
2018-08-08T05:57:52.643Z,930.15
2018-08-08T05:59:24.213Z,930.07
2018-08-08T06:00:55.781Z,930.07
2018-08-08T06:02:27.450Z,930.06
2018-08-08T06:03:58.975Z,930.07
2018-08-08T06:05:30.544Z,930.07
2018-08-08T06:07:02.113Z,930.10
2018-08-08T06:08:33.782Z,930.10
2018-08-08T06:10:05.250Z,930.10
2018-08-08T06:11:36.817Z,930.15
2018-08-08T06:13:08.332Z,930.11
2018-08-08T06:14:39.901Z,930.13
2018-08-08T06:16:11.472Z,930.14
2018-08-08T06:17:43.039Z,930.15
2018-08-08T06:19:14.607Z,930.19
2018-08-08T06:20:46.176Z,930.19
2018-08-08T06:22:17.746Z,930.23
2018-08-08T06:23:49.314Z,930.19
2018-08-08T06:25:20.908Z,930.20
2018-08-08T06:26:52.702Z,930.22
2018-08-08T06:28:24.022Z,930.24
2018-08-08T06:29:55.590Z,930.17
2018-08-08T06:31:27.159Z,930.15
2018-08-08T06:32:58.828Z,930.18
2018-08-08T06:34:30.297Z,930.20
2018-08-08T06:36:01.866Z,930.16
2018-08-08T06:37:33.449Z,930.16
2018-08-08T06:39:05.005Z,930.12
2018-08-08T06:40:36.574Z,930.12
2018-08-08T06:42:08.141Z,930.11
2018-08-08T06:43:39.738Z,930.07
2018-08-08T06:45:11.380Z,930.10
2018-08-08T06:46:42.848Z,930.11
2018-08-08T06:48:14.417Z,930.15
2018-08-08T06:49:45.986Z,930.12
2018-08-08T06:51:17.556Z,930.07
2018-08-08T06:52:49.129Z,930.01
2018-08-08T06:54:20.692Z,930.03
2018-08-08T06:55:52.261Z,930.00
2018-08-08T06:57:23.980Z,930.01
2018-08-08T06:58:55.399Z,930.03
2018-08-08T07:00:26.968Z,930.01
2018-08-08T07:01:58.537Z,930.00
2018-08-08T07:03:30.357Z,930.03
2018-08-08T07:05:01.677Z,929.99
2018-08-08T07:06:33.243Z,930.03
2018-08-08T07:08:04.812Z,930.03
2018-08-08T07:09:36.381Z,930.01
2018-08-08T07:11:07.950Z,930.04
2018-08-08T07:12:39.520Z,930.01
2018-08-08T07:14:11.123Z,930.08
2018-08-08T07:15:42.714Z,930.06
2018-08-08T07:17:14.282Z,930.07
2018-08-08T07:18:45.852Z,930.06
2018-08-08T07:20:17.420Z,930.05
2018-08-08T07:21:49.088Z,930.07
2018-08-08T07:23:21.103Z,930.05
2018-08-08T07:24:52.071Z,930.11
2018-08-08T07:26:23.640Z,930.14
2018-08-08T07:27:55.459Z,930.17
2018-08-08T07:29:26.778Z,930.16
2018-08-08T07:30:58.347Z,930.14
2018-08-08T07:32:29.917Z,930.17
2018-08-08T07:34:01.585Z,930.21
2018-08-08T07:35:33.054Z,930.20
2018-08-08T07:37:04.625Z,930.23
2018-08-08T07:38:36.192Z,930.24
2018-08-08T07:40:07.861Z,930.24
2018-08-08T07:41:39.330Z,930.26
2018-08-08T07:43:10.899Z,930.23
2018-08-08T07:44:42.468Z,930.24
2018-08-08T07:46:14.084Z,930.23
2018-08-08T07:47:45.607Z,930.27
2018-08-08T07:49:17.177Z,930.28
2018-08-08T07:50:48.745Z,930.30
2018-08-08T07:52:20.414Z,930.30
2018-08-08T07:53:51.891Z,930.25
2018-08-08T07:55:23.463Z,930.28
2018-08-08T07:56:55.022Z,930.28
2018-08-08T07:58:26.941Z,930.29
2018-08-08T07:59:58.159Z,930.34
2018-08-08T08:01:29.729Z,930.33
2018-08-08T08:03:01.298Z,930.35
2018-08-08T08:04:32.967Z,930.38
2018-08-08T08:06:04.437Z,930.39
2018-08-08T08:07:36.005Z,930.42
2018-08-08T08:09:07.575Z,930.38
2018-08-08T08:10:39.144Z,930.40
2018-08-08T08:12:10.722Z,930.42
2018-08-08T08:13:42.282Z,930.44
2018-08-08T08:15:13.851Z,930.45
2018-08-08T08:16:45.520Z,930.45
2018-08-08T08:18:16.989Z,930.43
2018-08-08T08:19:48.809Z,930.49
2018-08-08T08:21:20.128Z,930.47
2018-08-08T08:22:51.797Z,930.48
2018-08-08T08:24:23.274Z,930.44
2018-08-08T08:25:54.836Z,930.46
2018-08-08T08:27:26.404Z,930.48
2018-08-08T08:28:57.974Z,930.46
2018-08-08T08:30:29.543Z,930.47
2018-08-08T08:32:01.112Z,930.49
2018-08-08T08:33:32.681Z,930.48
2018-08-08T08:35:05.252Z,930.53
2018-08-08T08:36:35.819Z,930.58
2018-08-08T08:38:07.388Z,930.56
2018-08-08T08:39:38.957Z,930.54
2018-08-08T08:41:10.526Z,930.56
2018-08-08T08:42:42.095Z,930.63
2018-08-08T08:44:13.666Z,930.59
2018-08-08T08:45:45.233Z,930.62
2018-08-08T08:47:16.803Z,930.70
2018-08-08T08:48:48.374Z,930.69
2018-08-08T08:50:19.980Z,930.68
2018-08-08T08:51:51.510Z,930.72
2018-08-08T08:53:23.179Z,930.74
2018-08-08T08:54:54.650Z,930.77
2018-08-08T08:56:26.217Z,930.75
2018-08-08T08:57:57.787Z,930.79
2018-08-08T08:59:29.808Z,930.74
2018-08-08T09:01:00.927Z,930.78
2018-08-08T09:02:32.567Z,930.80
2018-08-08T09:04:04.061Z,930.79
2018-08-08T09:05:35.730Z,930.82
2018-08-08T09:07:07.199Z,930.83
2018-08-08T09:08:38.770Z,930.90
2018-08-08T09:10:10.337Z,930.92
2018-08-08T09:11:42.006Z,930.95
2018-08-08T09:13:13.475Z,930.95
2018-08-08T09:14:45.044Z,930.94
2018-08-08T09:16:16.618Z,930.93
2018-08-08T09:17:48.181Z,930.95
2018-08-08T09:19:19.751Z,930.95
2018-08-08T09:20:51.320Z,930.95
2018-08-08T09:22:22.890Z,930.98
2018-08-08T09:23:54.560Z,930.98
2018-08-08T09:25:26.033Z,931.02
2018-08-08T09:26:57.597Z,931.02
2018-08-08T09:28:29.209Z,931.06
2018-08-08T09:30:01.136Z,931.01
2018-08-08T09:31:32.305Z,931.07
2018-08-08T09:33:03.879Z,931.01
2018-08-08T09:34:35.444Z,931.06
2018-08-08T09:36:07.113Z,931.06
2018-08-08T09:37:38.581Z,931.09
2018-08-08T09:39:10.151Z,931.10
2018-08-08T09:40:41.721Z,931.12
2018-08-08T09:42:13.292Z,931.12
2018-08-08T09:43:44.859Z,931.15
2018-08-08T09:45:16.429Z,931.12
2018-08-08T09:46:47.996Z,931.10
2018-08-08T09:48:19.724Z,931.09
2018-08-08T09:49:51.765Z,931.09
2018-08-08T09:51:22.761Z,931.16
2018-08-08T09:52:54.328Z,931.10
2018-08-08T09:54:25.899Z,931.04
2018-08-08T09:57:29.037Z,931.09
2018-08-08T09:59:00.607Z,931.11
2018-08-08T10:02:03.894Z,931.17
2018-08-08T10:03:35.384Z,931.21
2018-08-08T10:05:06.826Z,931.20
2018-08-08T10:06:38.397Z,931.18
2018-08-08T10:08:10.215Z,931.16
2018-08-08T10:09:42.121Z,931.20
2018-08-08T10:11:13.408Z,931.19
2018-08-08T10:12:44.675Z,931.23
2018-08-08T10:14:16.242Z,931.17
2018-08-08T10:15:47.811Z,931.21
2018-08-08T10:17:19.685Z,931.20
2018-08-08T10:18:50.959Z,931.26
2018-08-08T10:20:22.529Z,931.19
2018-08-08T10:23:25.658Z,931.23
2018-08-08T10:26:28.905Z,931.35
2018-08-08T10:28:00.366Z,931.34
2018-08-08T10:29:32.139Z,931.38
2018-08-08T10:31:03.507Z,931.41
2018-08-08T10:32:35.078Z,931.39
2018-08-08T10:34:06.644Z,931.43
2018-08-08T10:35:38.229Z,931.45
2018-08-08T10:37:09.788Z,931.45
2018-08-08T10:38:41.353Z,931.47
2018-08-08T10:40:13.227Z,931.52
2018-08-08T10:41:44.496Z,931.47
2018-08-08T10:43:16.266Z,931.50
2018-08-08T10:44:47.985Z,931.54
2018-08-08T10:47:50.773Z,931.62
2018-08-08T10:50:53.912Z,931.70
2018-08-08T10:53:57.053Z,931.76
2018-08-08T10:55:28.625Z,931.75
2018-08-08T10:57:00.198Z,931.81
2018-08-08T10:58:31.765Z,931.84
2018-08-08T11:00:03.840Z,931.92
2018-08-08T11:01:34.931Z,931.92
2018-08-08T11:03:07.540Z,931.94
2018-08-08T11:04:38.047Z,931.95
2018-08-08T11:06:09.921Z,931.95
2018-08-08T11:07:41.187Z,931.96
2018-08-08T11:09:13.063Z,931.99
2018-08-08T11:10:44.631Z,932.00
2018-08-08T11:12:15.899Z,932.03
2018-08-08T11:13:47.471Z,932.03
2018-08-08T11:16:50.643Z,932.10
2018-08-08T11:22:56.996Z,932.24
2018-08-08T11:26:00.238Z,932.25
2018-08-08T11:27:31.613Z,932.22
2018-08-08T11:29:03.176Z,932.27
2018-08-08T11:30:34.749Z,932.26
2018-08-08T11:32:06.319Z,932.29
2018-08-08T11:33:38.093Z,932.31
2018-08-08T11:36:41.692Z,932.27
2018-08-08T11:38:13.210Z,932.35
2018-08-08T11:39:44.179Z,932.43
2018-08-08T11:42:47.957Z,932.37
2018-08-08T11:45:50.995Z,932.37
2018-08-08T11:50:25.713Z,932.52
2018-08-08T11:53:28.321Z,932.48
2018-08-08T11:54:59.894Z,932.53
2018-08-08T11:56:31.839Z,932.48
2018-08-08T11:59:34.612Z,932.47
2018-08-08T12:01:06.182Z,932.47
2018-08-08T12:04:09.631Z,932.53
2018-08-08T12:05:41.251Z,932.55
2018-08-08T12:07:12.477Z,932.56
2018-08-08T12:08:44.060Z,932.54
2018-08-08T12:10:15.627Z,932.64
2018-08-08T12:11:47.305Z,932.58
2018-08-08T12:13:18.971Z,932.52
2018-08-08T12:14:50.380Z,932.54
2018-08-08T12:17:53.486Z,932.59
2018-08-08T12:19:25.267Z,932.55
2018-08-08T12:20:56.764Z,932.53
2018-08-08T12:22:28.208Z,932.68
2018-08-08T12:24:00.083Z,932.55
2018-08-08T12:25:31.763Z,932.49
2018-08-08T12:27:03.285Z,932.48
2018-08-08T12:28:34.838Z,932.47
2018-08-08T12:30:06.297Z,932.52
2018-08-08T12:33:09.232Z,932.43
2018-08-08T12:37:43.963Z,932.57
2018-08-08T12:39:15.895Z,932.49
2018-08-08T12:40:47.199Z,932.61
2018-08-08T12:42:18.691Z,932.54
2018-08-08T12:43:50.425Z,932.56
2018-08-08T12:45:21.906Z,932.46
2018-08-08T12:46:53.681Z,932.40
2018-08-08T12:48:25.056Z,932.32
2018-08-08T12:49:56.631Z,932.30
2018-08-08T12:51:28.207Z,932.37
2018-08-08T12:52:59.783Z,932.22
2018-08-08T12:54:31.561Z,932.31
2018-08-08T12:56:02.968Z,932.20
2018-08-08T12:57:34.551Z,932.00
2018-08-08T13:00:37.672Z,932.05
2018-08-08T13:02:09.738Z,932.06
2018-08-08T13:03:40.819Z,932.07
2018-08-08T13:05:12.395Z,932.08
2018-08-08T13:06:44.175Z,932.12
2018-08-08T13:09:47.127Z,932.11
2018-08-08T13:11:19.780Z,932.01
2018-08-08T13:12:50.876Z,932.02
2018-08-08T13:14:22.001Z,932.05
2018-08-08T13:15:53.386Z,931.97
2018-08-08T13:17:24.964Z,931.90
2018-08-08T13:22:00.009Z,931.96
2018-08-08T13:23:31.824Z,931.84
2018-08-08T13:25:03.067Z,931.84
2018-08-08T13:28:06.023Z,931.75
2018-08-08T13:29:38.208Z,931.74
2018-08-08T13:31:09.724Z,931.76
2018-08-08T13:32:40.763Z,931.69
2018-08-08T13:34:12.345Z,931.63
2018-08-08T13:35:43.924Z,931.64
2018-08-08T13:37:15.504Z,931.61
2018-08-08T13:38:47.093Z,931.66
2018-08-08T13:40:18.866Z,931.62
2018-08-08T13:41:50.248Z,931.60
2018-08-08T13:43:21.873Z,931.58
2018-08-08T13:44:53.946Z,931.58
2018-08-08T13:46:24.990Z,931.53
2018-08-08T13:47:56.572Z,931.52
2018-08-08T13:49:28.155Z,931.50
2018-08-08T13:51:00.040Z,931.54
2018-08-08T13:52:31.518Z,931.50
2018-08-08T13:55:34.684Z,931.39
2018-08-08T13:57:06.059Z,931.25
2018-08-08T13:58:38.494Z,931.19
2018-08-08T14:00:09.283Z,931.17
2018-08-08T14:01:40.804Z,931.15
2018-08-08T14:03:12.692Z,931.13
2018-08-08T14:04:44.171Z,931.02
2018-08-08T14:06:16.693Z,931.02
2018-08-08T14:07:47.297Z,931.03
2018-08-08T14:10:50.297Z,931.04
2018-08-08T14:12:21.954Z,931.02
2018-08-08T14:16:56.988Z,930.88
2018-08-08T14:18:28.298Z,930.95
2018-08-08T14:19:59.819Z,930.84
2018-08-08T14:21:32.059Z,930.78
2018-08-08T14:23:02.958Z,930.77
2018-08-08T14:26:06.120Z,930.73
2018-08-08T14:27:38.302Z,930.72
2018-08-08T14:29:09.345Z,930.70
2018-08-08T14:30:40.870Z,930.65
2018-08-08T14:32:12.978Z,930.63
2018-08-08T14:33:44.035Z,930.61
2018-08-08T14:35:15.718Z,930.63
2018-08-08T14:36:47.213Z,930.60
2018-08-08T14:38:18.783Z,930.59
2018-08-08T14:39:50.903Z,930.61
2018-08-08T14:41:21.950Z,930.54
2018-08-08T14:44:25.652Z,930.52
2018-08-08T14:45:57.007Z,930.53
2018-08-08T14:49:00.169Z,930.53
2018-08-08T14:50:31.450Z,930.51
2018-08-08T14:52:03.033Z,930.54
2018-08-08T14:53:34.618Z,930.55
2018-08-08T14:55:06.503Z,930.53
2018-08-08T14:56:37.783Z,930.50
2018-08-08T14:58:09.673Z,930.54
2018-08-08T14:59:41.255Z,930.48
2018-08-08T15:01:12.536Z,930.39
2018-08-08T15:02:44.121Z,930.34
2018-08-08T15:04:16.308Z,930.38
2018-08-08T15:05:47.326Z,930.36
2018-08-08T15:08:54.043Z,930.33
2018-08-08T15:10:22.201Z,930.39
2018-08-08T15:13:25.408Z,930.29
2018-08-08T15:14:56.793Z,930.30
2018-08-08T15:16:28.374Z,930.27
2018-08-08T15:18:00.167Z,930.19
2018-08-08T15:19:31.766Z,930.21
2018-08-08T15:25:38.088Z,930.07
2018-08-08T15:28:41.052Z,929.93
2018-08-08T15:30:12.641Z,929.91
2018-08-08T15:31:44.478Z,929.91
2018-08-08T15:33:15.805Z,929.89
2018-08-08T15:34:47.998Z,929.87
2018-08-08T15:39:22.148Z,929.72
2018-08-08T15:40:53.759Z,929.74
2018-08-08T15:42:25.313Z,929.70
2018-08-08T15:45:28.710Z,929.63
2018-08-08T15:47:00.272Z,929.60
2018-08-08T15:48:31.861Z,929.64
2018-08-08T15:50:03.239Z,929.60
2018-08-08T15:51:34.938Z,929.60
2018-08-08T15:53:06.412Z,929.59
2018-08-08T15:54:38.941Z,929.57
2018-08-08T15:56:10.117Z,929.50
2018-08-08T15:57:41.167Z,929.51
2018-08-08T15:59:12.762Z,929.51
2018-08-08T16:02:16.126Z,929.42
2018-08-08T16:03:47.509Z,929.36
2018-08-08T16:05:19.095Z,929.40
2018-08-08T16:06:50.680Z,929.38
2018-08-08T16:08:22.268Z,929.32
2018-08-08T16:09:54.159Z,929.31
2018-08-08T16:11:26.059Z,929.25
2018-08-08T16:12:57.026Z,929.18
2018-08-08T16:14:28.662Z,929.21
2018-08-08T16:16:00.500Z,929.22
2018-08-08T16:17:31.819Z,929.14
2018-08-08T16:22:07.078Z,929.08
2018-08-08T16:23:38.137Z,929.05
2018-08-08T16:25:09.712Z,929.04
2018-08-08T16:26:41.298Z,929.07
2018-08-08T16:28:13.037Z,929.02
2018-08-08T16:31:16.071Z,928.96
2018-08-08T16:34:19.435Z,928.90
2018-08-08T16:35:50.822Z,928.92
2018-08-08T16:37:22.403Z,928.81
2018-08-08T16:38:53.993Z,928.75
2018-08-08T16:40:25.576Z,928.77
2018-08-08T16:43:28.781Z,928.69
2018-08-08T16:46:32.556Z,928.60
2018-08-08T16:49:35.091Z,928.53
2018-08-08T16:51:07.175Z,928.49
2018-08-08T16:54:09.848Z,928.43
2018-08-08T16:55:41.657Z,928.35
2018-08-08T16:58:45.138Z,928.34
2018-08-08T17:00:16.211Z,928.34
2018-08-08T17:01:48.027Z,928.29
2018-08-08T17:03:19.661Z,928.22
2018-08-08T17:06:22.646Z,928.19
2018-08-08T17:07:54.114Z,928.22
2018-08-08T17:10:57.590Z,928.21
2018-08-08T17:15:32.042Z,928.10
2018-08-08T17:18:35.514Z,928.13
2018-08-08T17:21:38.479Z,928.12
2018-08-08T17:23:09.983Z,928.07
2018-08-08T17:26:13.130Z,928.12
2018-08-08T17:27:44.714Z,928.18
2018-08-08T17:29:16.509Z,928.14
2018-08-08T17:33:51.296Z,928.14
2018-08-08T17:35:22.831Z,928.13
2018-08-08T17:36:54.571Z,928.15
2018-08-08T17:38:26.002Z,928.07
2018-08-08T17:39:57.483Z,928.11
2018-08-08T17:41:28.962Z,928.09
2018-08-08T17:43:00.586Z,928.04
2018-08-08T17:44:32.317Z,928.07
2018-08-08T17:46:03.891Z,928.03
2018-08-08T17:47:35.309Z,928.06
2018-08-08T17:50:38.627Z,928.08
2018-08-08T17:52:10.559Z,928.05
2018-08-08T17:53:41.637Z,928.01
2018-08-08T17:55:13.220Z,928.06
2018-08-08T17:56:45.112Z,927.99
2018-08-08T17:58:16.793Z,927.98
2018-08-08T17:59:47.975Z,927.97
2018-08-08T18:01:19.571Z,927.95
2018-08-08T18:05:54.313Z,927.91
2018-08-08T18:07:25.898Z,927.85
2018-08-08T18:08:58.017Z,927.91
2018-08-08T18:10:29.599Z,927.83
2018-08-08T18:12:00.648Z,927.85
2018-08-08T18:13:32.437Z,927.85
2018-08-08T18:16:35.704Z,927.82
2018-08-08T18:19:39.283Z,927.82
2018-08-08T18:21:10.152Z,927.78
2018-08-08T18:24:13.321Z,927.74
2018-08-08T18:28:48.071Z,927.79
2018-08-08T18:30:19.667Z,927.73
2018-08-08T18:31:51.258Z,927.70
2018-08-08T18:33:23.562Z,927.68
2018-08-08T18:34:54.527Z,927.68
2018-08-08T18:36:25.989Z,927.70
2018-08-08T18:37:57.607Z,927.65
2018-08-08T18:39:29.156Z,927.61
2018-08-08T18:41:00.740Z,927.61
2018-08-08T18:42:32.321Z,927.56
2018-08-08T18:44:03.904Z,927.68
2018-08-08T18:45:35.488Z,927.62
2018-08-08T18:47:07.070Z,927.69
2018-08-08T18:50:10.550Z,927.65
2018-08-08T18:51:41.820Z,927.67
2018-08-08T18:53:13.805Z,927.70
2018-08-08T18:54:44.991Z,927.73
2018-08-08T18:57:48.351Z,927.68
2018-08-08T18:59:19.734Z,927.66
2018-08-08T19:00:52.073Z,927.68
2018-08-08T19:02:23.366Z,927.75
2018-08-08T19:03:54.712Z,927.78
2018-08-08T19:05:26.059Z,927.76
2018-08-08T19:08:29.302Z,927.81
2018-08-08T19:10:00.805Z,927.79
2018-08-08T19:11:32.641Z,927.76
2018-08-08T19:13:03.966Z,927.75
2018-08-08T19:16:07.160Z,927.71
2018-08-08T19:19:10.290Z,927.67
2018-08-08T19:20:41.871Z,927.64
2018-08-08T19:22:13.667Z,927.63
2018-08-08T19:23:45.567Z,927.60
2018-08-08T19:26:48.496Z,927.57
2018-08-08T19:28:19.772Z,927.56
2018-08-08T19:29:51.351Z,927.52
2018-08-08T19:31:23.140Z,927.51
2018-08-08T19:34:26.093Z,927.56
2018-08-08T19:35:57.879Z,927.55
2018-08-08T19:37:29.456Z,927.61
2018-08-08T19:39:00.835Z,927.61
2018-08-08T19:40:32.624Z,927.59
2018-08-08T19:42:03.990Z,927.66
2018-08-08T19:43:35.570Z,927.68
2018-08-08T19:45:07.148Z,927.66
2018-08-08T19:46:38.828Z,927.69
2018-08-08T19:48:10.509Z,927.75
2018-08-08T19:49:41.885Z,927.68
2018-08-08T19:51:13.463Z,927.68
2018-08-08T19:52:45.043Z,927.66
2018-08-08T19:54:17.156Z,927.72
2018-08-08T19:55:48.852Z,927.78
2018-08-08T19:57:19.778Z,927.83
2018-08-08T19:58:51.355Z,927.69
2018-08-08T20:00:23.145Z,927.73
2018-08-08T20:01:54.511Z,927.67
2018-08-08T20:03:26.090Z,927.73
2018-08-08T20:04:57.669Z,927.77
2018-08-08T20:06:29.246Z,927.79
2018-08-08T20:08:00.869Z,927.83
2018-08-08T20:09:32.572Z,927.79
2018-08-08T20:11:03.977Z,927.84
2018-08-08T20:12:35.556Z,927.87
2018-08-08T20:15:38.813Z,927.97
2018-08-08T20:17:10.591Z,927.96
2018-08-08T20:18:41.868Z,928.00
2018-08-08T20:21:45.222Z,927.97
2018-08-08T20:23:16.595Z,927.98
2018-08-08T20:24:48.181Z,928.01
2018-08-08T20:26:19.751Z,928.01
2018-08-08T20:27:51.862Z,928.02
2018-08-08T20:29:22.902Z,928.03
2018-08-08T20:30:54.478Z,928.02
2018-08-08T20:32:26.058Z,928.08
2018-08-08T20:33:57.825Z,928.09
2018-08-08T20:35:29.204Z,928.11
2018-08-08T20:37:00.780Z,928.11
2018-08-08T20:38:32.357Z,928.11
2018-08-08T20:40:03.931Z,928.15
2018-08-08T20:41:35.509Z,928.15
2018-08-08T20:43:07.082Z,928.20
2018-08-08T20:44:38.676Z,928.22
2018-08-08T20:46:10.235Z,928.29
2018-08-08T20:47:41.807Z,928.27
2018-08-08T20:49:13.381Z,928.32
2018-08-08T20:50:44.957Z,928.32
2018-08-08T20:52:16.630Z,928.33
2018-08-08T20:53:48.151Z,928.30
2018-08-08T20:55:19.679Z,928.30
2018-08-08T20:56:51.253Z,928.29
2018-08-08T20:58:23.029Z,928.27
2018-08-08T20:59:54.405Z,928.33
2018-08-08T21:01:25.975Z,928.36
2018-08-08T21:02:57.549Z,928.38
2018-08-08T21:04:29.123Z,928.35
2018-08-08T21:06:00.698Z,928.36